01:55 Langlaufen Leutasch Skating
Ort Leutasch Datum 11.12.2016 10:27:25
Kategorie Langlaufen
Distanz 30,42 Kilometer Steigung 277,0 Meter Gefälle -265,0 Meter
Gesamt Zeit 01:55:25 Aktiv 01:55:25 Pause 00:00:00
Durchs. Tempo 00:03:47 min/km Tempo max. 00:02:27 min/km Tempo min. 00:08:45 min/km
Kalorien 0 Durchs. HF 137 BPM HF max. 159 BPM
Wetter 3 °C Clear Min/Max: -0,1 °C/4,2 °C; Druck: 1024,3 mbar; Rel. Feuchte: 55,7%; Taupunkt: -4,2 °C; Windgeschwindigkeit: 5,8 km/h; Niederschlag: 0,0mm
Ausrüstung Salomon - Equipe 10 SK
Salomon - RS Carbon
Notiz Leutasch Skating ... div. - locker ... garmin connect
Splits
Distanz (km) Gesamt Zeit Split Zeit Split Tempo Split Tempo Höhenprofil (m)
1,00 00:04:03 00:04:03 00:04:04 14,8 -4,63
2,00 00:07:25 00:03:22 00:03:22 17,8 -14,59
3,00 00:10:59 00:03:34 00:03:34 16,8 0,05
4,00 00:14:50 00:03:50 00:03:51 15,6 5,85
5,00 00:19:08 00:04:18 00:04:18 13,9 18,00
6,00 00:23:24 00:04:15 00:04:16 14,1 5,09
7,00 00:27:23 00:03:58 00:03:59 15,1 3,99
8,00 00:30:27 00:03:04 00:03:04 19,5 -21,24
9,00 00:33:40 00:03:12 00:03:13 18,7 -10,94
10,00 00:37:17 00:03:37 00:03:38 16,5 0,57
11,00 00:40:57 00:03:39 00:03:40 16,4 7,06
12,00 00:45:37 00:04:40 00:04:40 12,8 26,49
13,00 00:49:37 00:03:59 00:04:00 15,0 -4,63
14,00 00:53:23 00:03:45 00:03:46 15,9 -0,63
15,00 00:56:52 00:03:28 00:03:29 17,3 -21,94
16,00 01:00:12 00:03:20 00:03:20 18,0 -6,76
17,00 01:03:43 00:03:30 00:03:31 17,1 -0,47
18,00 01:07:40 00:03:57 00:03:57 15,2 12,59
19,00 01:12:35 00:04:55 00:04:55 12,2 15,92
20,00 01:16:14 00:03:38 00:03:39 16,4 -0,37
21,00 01:20:00 00:03:45 00:03:46 15,9 -7,08
22,00 01:23:13 00:03:13 00:03:13 18,6 -18,22
23,00 01:26:44 00:03:31 00:03:32 17,0 -3,70
24,00 01:30:22 00:03:37 00:03:38 16,5 0,01
25,00 01:34:38 00:04:15 00:04:16 14,1 19,19
26,00 01:38:40 00:04:01 00:04:02 14,9 -2,95
27,00 01:41:54 00:03:14 00:03:15 18,5 -15,99
28,00 01:45:30 00:03:36 00:03:36 16,7 -0,03
29,00 01:49:19 00:03:48 00:03:48 15,8 5,60
30,00 01:53:37 00:04:18 00:04:18 13,9 17,83
30,50 01:55:25 00:01:47 00:03:35 16,8 -4,03